Time;durP1;ratioP1;P1;durP2;ratioP2;P2;SDS_P1;SDS_P2;PMS_P1;PMS_P2;Temp;Humidity;BMP_temperature;BMP_pressure;BME280_temperature;BME280_humidity;BME280_pressure;Samples;Min_cycle;Max_cycle;Signal;HPM_P1;HPM_P2
2022/10/06 00:00:49;;;;;;;18.05;2.30;;;;;;;15.47;76.63;102156.50;6276784;22;20019;-61
2022/10/06 00:03:17;;;;;;;12.93;2.38;;;;;;;15.35;76.95;102155.34;6250495;22;20047;-60
2022/10/06 00:05:44;;;;;;;11.13;1.92;;;;;;;15.94;81.45;102152.34;6249290;22;20016;-61
2022/10/06 00:08:11;;;;;;;10.45;2.17;;;;;;;16.07;77.82;102156.22;6278327;22;20126;-60
2022/10/06 00:10:39;;;;;;;13.30;1.98;;;;;;;16.06;78.34;102158.19;6250423;22;20293;-60
2022/10/06 00:13:06;;;;;;;11.18;2.05;;;;;;;15.81;76.96;102169.09;6250235;22;20016;-61
2022/10/06 00:15:33;;;;;;;15.20;2.55;;;;;;;16.22;79.64;102173.34;6277294;22;20015;-61
2022/10/06 00:18:01;;;;;;;15.48;2.10;;;;;;;16.01;75.23;102182.47;6277892;22;20026;-60
2022/10/06 00:20:29;;;;;;;12.02;2.10;;;;;;;15.65;74.82;102193.63;6249823;22;20027;-60
2022/10/06 00:22:57;;;;;;;13.63;2.13;;;;;;;15.47;75.75;102192.59;6277306;22;20455;-60
2022/10/06 00:25:26;;;;;;;14.65;2.85;;;;;;;15.48;76.10;102193.44;6277110;22;20042;-60
2022/10/06 00:27:54;;;;;;;15.73;2.50;;;;;;;15.35;76.05;102208.09;6251486;22;20335;-60
2022/10/06 00:30:26;;;;;;;18.80;2.63;;;;;;;15.35;78.74;102208.94;6276765;22;20015;-60
2022/10/06 00:32:59;;;;;;;10.63;2.42;;;;;;;15.90;78.73;102212.47;6277874;22;20447;-60
2022/10/06 00:35:33;;;;;;;13.25;2.72;;;;;;;15.06;75.61;102219.53;6250160;22;20012;-61
2022/10/06 00:38:00;;;;;;;13.82;2.67;;;;;;;15.38;80.71;102226.91;6275376;22;20024;-61
2022/10/06 00:40:28;;;;;;;16.60;2.85;;;;;;;15.38;77.42;102219.41;6249344;22;20024;-62
2022/10/06 00:43:04;;;;;;;10.88;1.92;;;;;;;15.52;78.56;102225.00;6250043;22;20489;-61
2022/10/06 00:45:36;;;;;;;14.85;2.60;;;;;;;15.37;77.54;102223.34;6276952;22;20020;-61
2022/10/06 00:48:10;;;;;;;16.42;2.53;;;;;;;15.37;78.12;102228.91;6223775;22;20026;-61
2022/10/06 00:50:38;;;;;;;17.65;3.15;;;;;;;15.94;80.33;102232.94;6224284;22;20024;-60
2022/10/06 00:53:05;;;;;;;20.05;2.85;;;;;;;16.07;76.79;102232.09;6276852;22;20208;-60
2022/10/06 00:55:33;;;;;;;20.05;3.00;;;;;;;15.88;75.08;102228.66;6278338;22;20019;-61
2022/10/06 00:58:01;;;;;;;20.23;2.67;;;;;;;15.37;74.07;102236.41;6252711;22;20351;-59
2022/10/06 01:00:29;;;;;;;17.38;3.22;;;;;;;15.85;78.67;102236.78;6252035;22;20034;-59
2022/10/06 01:03:13;;;;;;;18.67;2.67;;;;;;;15.32;75.30;102239.28;6262501;22;20016;-59
2022/10/06 01:05:45;;;;;;;20.85;2.70;;;;;;;15.20;77.28;102241.75;6226259;22;20601;-60
2022/10/06 01:08:14;;;;;;;14.82;2.53;;;;;;;15.85;79.93;102237.59;6252902;22;20071;-59
2022/10/06 01:10:42;;;;;;;15.35;2.42;;;;;;;16.11;78.94;102240.66;6251724;22;20020;-61
2022/10/06 01:13:10;;;;;;;14.77;2.30;;;;;;;16.33;77.65;102237.88;6279398;22;20042;-60
2022/10/06 01:15:42;;;;;;;14.35;2.45;;;;;;;16.18;77.13;102252.16;6249681;22;20046;-60
2022/10/06 01:18:12;;;;;;;11.00;1.95;;;;;;;16.30;76.41;102255.19;6251949;22;20035;-60
2022/10/06 01:20:44;;;;;;;11.90;2.28;;;;;;;15.94;77.62;102234.91;6278422;22;20026;-61
2022/10/06 01:23:12;;;;;;;17.20;2.75;;;;;;;16.37;78.78;102250.03;6252393;22;20420;-60
2022/10/06 01:25:39;;;;;;;19.05;3.08;;;;;;;16.17;76.40;102261.63;6225493;22;20023;-60
2022/10/06 01:28:08;;;;;;;13.80;2.20;;;;;;;16.41;77.32;102262.13;6226863;22;20020;-60
2022/10/06 01:30:39;;;;;;;23.35;3.45;;;;;;;15.76;74.05;102261.69;6199177;22;20027;-61
2022/10/06 01:33:07;;;;;;;18.35;2.65;;;;;;;16.13;78.79;102263.38;6251671;22;20016;-60
2022/10/06 01:35:34;;;;;;;22.95;3.67;;;;;;;16.02;76.28;102270.31;6225634;22;20012;-60
2022/10/06 01:38:01;;;;;;;16.35;2.55;;;;;;;16.07;77.47;102267.41;6226943;22;20020;-61
2022/10/06 01:40:30;;;;;;;19.42;3.05;;;;;;;16.35;77.63;102271.75;6251017;22;20028;-60
2022/10/06 01:43:00;;;;;;;;;;;;;;;15.84;72.04;102268.47;6206382;23;20017;-60
2022/10/06 01:45:27;;;;;;;22.23;3.05;;;;;;;15.23;72.84;102268.88;6190548;23;19946;-60
2022/10/06 01:47:55;;;;;;;15.98;2.70;;;;;;;14.71;72.98;102267.34;6216251;23;20020;-61
2022/10/06 01:50:22;;;;;;;22.00;3.38;;;;;;;15.30;79.34;102263.75;6215711;23;20433;-61
2022/10/06 01:52:49;;;;;;;20.45;3.10;;;;;;;14.91;75.82;102266.97;6218163;23;20397;-61
2022/10/06 01:55:18;;;;;;;15.38;2.88;;;;;;;15.41;79.54;102270.78;6216975;23;20025;-61
2022/10/06 01:57:45;;;;;;;18.52;3.70;;;;;;;15.64;77.62;102273.34;6190922;23;20016;-60
2022/10/06 02:00:13;;;;;;;18.38;2.85;;;;;;;15.86;76.73;102272.59;6218046;23;20020;-60
2022/10/06 02:02:42;;;;;;;18.90;2.80;;;;;;;15.54;77.20;102278.28;6166920;23;20021;-60
2022/10/06 02:05:09;;;;;;;17.88;3.25;;;;;;;15.81;79.30;102277.44;6217162;23;20394;-61
2022/10/06 02:07:40;;;;;;;17.05;2.90;;;;;;;15.68;73.81;102282.72;6216058;23;20020;-60
2022/10/06 02:10:08;;;;;;;14.77;2.92;;;;;;;15.51;73.53;102287.22;6215660;23;20021;-60
2022/10/06 02:12:36;;;;;;;16.45;2.83;;;;;;;15.76;78.07;102283.91;6216047;23;20024;-60
2022/10/06 02:15:05;;;;;;;17.20;2.88;;;;;;;15.86;77.32;102283.72;6215989;23;20036;-60
2022/10/06 02:17:32;;;;;;;14.77;3.00;;;;;;;16.07;78.21;102282.16;6215412;23;20024;-61
2022/10/06 02:19:59;;;;;;;20.55;2.95;;;;;;;15.93;74.36;102288.84;6215792;23;20035;-61
2022/10/06 02:22:26;;;;;;;18.98;2.70;;;;;;;15.79;77.70;102284.13;6215363;23;20080;-60
2022/10/06 02:24:54;;;;;;;21.20;3.38;;;;;;;16.06;76.86;102291.59;6217312;23;20009;-61
2022/10/06 02:27:21;;;;;;;20.20;2.90;;;;;;;15.32;74.74;102292.84;6216763;23;20027;-60
2022/10/06 02:29:49;;;;;;;19.40;2.78;;;;;;;14.72;73.43;102301.44;6190698;23;20016;-60
2022/10/06 02:32:16;;;;;;;18.23;3.40;;;;;;;14.57;74.96;102306.09;6217081;23;20016;-61
2022/10/06 02:34:44;;;;;;;21.92;3.65;;;;;;;15.37;80.64;102301.09;6215663;23;20031;-60
2022/10/06 02:37:14;;;;;;;17.35;3.10;;;;;;;15.72;78.74;102314.31;6214429;23;20421;-61
2022/10/06 02:39:42;;;;;;;22.88;2.92;;;;;;;15.71;78.43;102314.59;6190912;23;20036;-61
2022/10/06 02:42:10;;;;;;;18.17;3.22;;;;;;;15.63;76.85;102309.75;6220569;23;20317;-61
2022/10/06 02:44:38;;;;;;;23.98;3.42;;;;;;;15.45;72.83;102311.50;6245638;23;20684;-60
2022/10/06 02:47:11;;;;;;;22.33;3.38;;;;;;;15.21;78.91;102316.38;6245514;23;20366;-60
2022/10/06 02:49:39;;;;;;;24.77;3.25;;;;;;;15.19;74.56;102318.63;6245947;23;20030;-60
2022/10/06 02:52:07;;;;;;;18.98;2.80;;;;;;;15.03;74.93;102319.22;6220214;23;20028;-61
2022/10/06 02:54:35;;;;;;;19.55;4.25;;;;;;;15.38;79.30;102318.53;6247140;23;20031;-60
2022/10/06 02:57:02;;;;;;;19.10;3.80;;;;;;;15.31;77.93;102323.69;6243019;23;20027;-61
2022/10/06 02:59:32;;;;;;;21.05;3.15;;;;;;;15.38;75.81;102333.25;6243961;23;20039;-60
2022/10/06 03:02:00;;;;;;;19.40;3.47;;;;;;;15.14;77.67;102329.84;6219255;23;20040;-60
2022/10/06 03:04:27;;;;;;;22.30;3.15;;;;;;;15.32;76.07;102331.72;6219184;23;20337;-61
2022/10/06 03:06:55;;;;;;;15.43;2.78;;;;;;;15.29;77.37;102337.88;6244387;23;20021;-60
2022/10/06 03:09:25;;;;;;;19.60;3.03;;;;;;;15.07;76.29;102345.22;6245250;23;20023;-60
2022/10/06 03:11:53;;;;;;;23.02;3.33;;;;;;;14.25;72.42;102344.00;6245342;23;20452;-61
2022/10/06 03:14:30;;;;;;;20.27;2.83;;;;;;;15.04;81.20;102340.28;6245284;23;20027;-60
2022/10/06 03:16:57;;;;;;;19.73;3.53;;;;;;;15.12;79.69;102345.13;6245460;23;20020;-61
2022/10/06 03:19:27;;;;;;;;;;;;;;;14.85;77.14;102339.50;6244943;23;20319;-60
2022/10/06 03:21:55;;;;;;;20.15;3.10;;;;;;;14.82;78.99;102346.47;6219344;23;19916;-61
2022/10/06 03:24:30;;;;;;;18.80;3.30;;;;;;;14.81;79.05;102346.78;6245235;23;20027;-60
2022/10/06 03:26:58;;;;;;;11.35;2.30;;;;;;;14.68;76.12;102351.97;6244292;23;20012;-60
2022/10/06 03:29:28;;;;;;;13.00;2.60;;;;;;;15.12;78.25;102357.06;6219867;23;20020;-60
2022/10/06 03:31:57;;;;;;;18.08;3.40;;;;;;;14.80;78.59;102354.28;6247488;23;20016;-60
2022/10/06 03:34:25;;;;;;;17.17;3.08;;;;;;;14.40;76.37;102354.91;6245362;23;20047;-60
2022/10/06 03:36:54;;;;;;;15.07;3.27;;;;;;;14.79;78.20;102363.72;6244565;23;20019;-60
2022/10/06 03:39:24;;;;;;;18.10;3.53;;;;;;;14.86;77.43;102358.63;6255254;23;20567;-60
2022/10/06 03:41:51;;;;;;;19.90;3.45;;;;;;;15.35;79.75;102366.38;6232566;22;20372;-61
2022/10/06 03:44:20;;;;;;;30.90;4.00;;;;;;;15.48;77.93;102362.84;6250390;22;20293;-61
2022/10/06 03:46:48;;;;;;;20.25;3.33;;;;;;;15.20;73.05;102375.78;6260272;22;20018;-60
2022/10/06 03:49:15;;;;;;;17.27;2.92;;;;;;;15.17;78.19;102378.34;6250647;22;20016;-60
2022/10/06 03:51:43;;;;;;;17.73;3.60;;;;;;;15.14;73.28;102387.28;6250658;22;20379;-60
2022/10/06 03:54:15;;;;;;;19.77;3.38;;;;;;;15.12;78.57;102393.16;6250394;22;20025;-61
2022/10/06 03:56:46;;;;;;;21.40;4.03;;;;;;;15.02;77.00;102401.66;6235563;22;20020;-61
2022/10/06 03:59:16;;;;;;;14.52;2.63;;;;;;;14.77;74.42;102404.81;6235105;22;20257;-60
2022/10/06 04:01:46;;;;;;;20.10;3.90;;;;;;;15.14;78.63;102403.94;6249653;22;20030;-60
2022/10/06 04:04:25;;;;;;;;;;;;;;;15.34;78.46;102398.06;6250913;22;20019;-61
2022/10/06 04:06:58;;;;;;;25.02;4.03;;;;;;;15.53;77.47;102407.19;6277389;22;19914;-61
2022/10/06 04:09:25;;;;;;;21.95;3.58;;;;;;;15.29;77.97;102412.03;6249739;22;20016;-61
2022/10/06 04:11:53;;;;;;;20.40;3.50;;;;;;;14.95;78.44;102417.03;6249616;22;20026;-60
2022/10/06 04:14:20;;;;;;;27.35;3.70;;;;;;;15.33;79.05;102404.72;6223716;22;20031;-61
2022/10/06 04:16:48;;;;;;;21.02;3.03;;;;;;;15.55;78.12;102408.50;6277909;22;20111;-60
2022/10/06 04:19:21;;;;;;;19.83;3.70;;;;;;;15.47;76.74;102416.72;6226435;22;20023;-60
2022/10/06 04:21:51;;;;;;;;;;;;;;;15.23;73.84;102418.78;6223796;22;20034;-60
2022/10/06 04:24:21;;;;;;;12.98;2.65;;;;;;;15.33;74.63;102421.38;6260126;22;19915;-61
2022/10/06 04:26:49;;;;;;;21.83;3.45;;;;;;;15.22;75.43;102423.50;6250309;22;20015;-60
2022/10/06 04:29:17;;;;;;;24.25;3.92;;;;;;;15.38;77.92;102426.84;6250436;22;20024;-61
2022/10/06 04:31:49;;;;;;;16.75;3.03;;;;;;;15.51;77.20;102426.94;6251661;22;20022;-60
2022/10/06 04:34:25;;;;;;;23.23;3.55;;;;;;;15.48;77.04;102427.53;6251536;22;20362;-61
2022/10/06 04:36:53;;;;;;;17.45;3.38;;;;;;;15.48;76.65;102432.28;6251741;22;20024;-61
2022/10/06 04:39:21;;;;;;;21.67;3.33;;;;;;;15.21;75.68;102432.97;6252238;22;20436;-62
2022/10/06 04:41:48;;;;;;;17.00;3.08;;;;;;;15.43;77.02;102435.94;6251627;22;20016;-61
2022/10/06 04:44:20;;;;;;;25.38;3.67;;;;;;;15.44;76.42;102440.38;6227356;22;20026;-60
2022/10/06 04:46:48;;;;;;;23.00;4.03;;;;;;;15.50;76.58;102435.53;6227250;22;20026;-61
2022/10/06 04:49:18;;;;;;;16.02;3.05;;;;;;;15.58;77.09;102432.09;6252023;22;20030;-61
2022/10/06 04:51:50;;;;;;;20.45;3.60;;;;;;;15.30;74.74;102439.50;6225491;22;20016;-61
2022/10/06 04:54:18;;;;;;;19.90;3.10;;;;;;;15.48;77.31;102435.84;6250951;22;20107;-62
2022/10/06 04:56:48;;;;;;;17.73;3.28;;;;;;;15.56;77.02;102442.66;6262236;22;20018;-61
2022/10/06 04:59:18;;;;;;;22.47;3.17;;;;;;;15.52;76.53;102450.78;6227506;22;20023;-61
2022/10/06 05:01:47;;;;;;;22.98;3.47;;;;;;;15.26;73.71;102452.31;6251193;22;20529;-60
2022/10/06 05:04:14;;;;;;;21.95;3.90;;;;;;;15.04;76.67;102448.53;6251988;22;20023;-61
2022/10/06 05:06:41;;;;;;;18.02;3.15;;;;;;;15.18;77.58;102455.78;6279123;22;20020;-62
2022/10/06 05:09:12;;;;;;;19.50;3.13;;;;;;;15.33;77.95;102451.91;6251663;22;20476;-60
2022/10/06 05:11:46;;;;;;;24.27;4.20;;;;;;;15.36;77.40;102445.78;6278531;22;20356;-61
2022/10/06 05:14:16;;;;;;;22.85;3.80;;;;;;;15.06;73.25;102452.66;6251311;22;20020;-61
2022/10/06 05:16:46;;;;;;;;;;;;;;;15.24;77.63;102462.06;6252367;22;20011;-61
2022/10/06 05:19:14;;;;;;;24.50;3.75;;;;;;;15.09;76.68;102456.75;6225960;22;19938;-61
2022/10/06 05:21:43;;;;;;;22.30;3.78;;;;;;;15.06;75.70;102462.94;6250374;22;20020;-60
2022/10/06 05:24:16;;;;;;;28.80;3.72;;;;;;;14.99;76.61;102466.09;6251487;22;20020;-60
2022/10/06 05:26:43;;;;;;;24.33;3.75;;;;;;;15.07;76.78;102462.63;6278304;22;20027;-60
2022/10/06 05:29:13;;;;;;;19.98;3.17;;;;;;;15.18;76.87;102466.06;6252240;22;20023;-61
2022/10/06 05:31:42;;;;;;;24.75;3.83;;;;;;;15.20;77.64;102467.38;6251634;22;20039;-60
2022/10/06 05:34:11;;;;;;;22.23;3.53;;;;;;;15.00;74.63;102461.34;6251732;22;20590;-61
2022/10/06 05:36:39;;;;;;;18.45;3.50;;;;;;;14.99;78.85;102473.56;6251830;22;20566;-61
2022/10/06 05:39:07;;;;;;;29.83;3.83;;;;;;;15.09;78.47;102478.97;6237334;22;20019;-62
2022/10/06 05:41:51;;;;;;;24.70;3.97;;;;;;;15.15;77.31;102480.56;6251630;22;20019;-60
2022/10/06 05:44:18;;;;;;;18.98;4.40;;;;;;;15.31;77.75;102484.72;6250959;22;20020;-61
2022/10/06 05:46:45;;;;;;;24.17;4.07;;;;;;;15.10;75.08;102478.66;6251867;22;20019;-62
2022/10/06 05:49:13;;;;;;;25.48;5.50;;;;;;;15.21;79.19;102482.09;6251723;22;20026;-61
2022/10/06 05:51:45;;;;;;;22.25;3.88;;;;;;;15.07;85.30;102484.00;6261324;22;20023;-61
2022/10/06 05:54:33;;;;;;;20.95;4.28;;;;;;;15.24;88.57;102495.38;6229560;22;20019;-61
2022/10/06 05:57:00;;;;;;;23.67;4.70;;;;;;;15.18;87.29;102497.44;6251375;22;20016;-60
2022/10/06 05:59:30;;;;;;;18.97;3.57;;;;;;;15.16;86.44;102496.06;6251693;22;20016;-60
2022/10/06 06:01:58;;;;;;;22.38;3.65;;;;;;;15.02;86.63;102489.63;6252040;22;20254;-60
2022/10/06 06:04:52;;;;;;;21.95;3.75;;;;;;;15.12;87.30;102501.41;6274772;22;20023;-60
2022/10/06 06:07:20;;;;;;;26.48;4.50;;;;;;;15.07;85.66;102497.88;6226396;22;20016;-61
2022/10/06 06:09:47;;;;;;;18.90;3.80;;;;;;;15.02;85.69;102498.78;6251690;22;20023;-63
2022/10/06 06:12:15;;;;;;;21.40;3.80;;;;;;;14.92;83.19;102495.31;6279160;22;20042;-61
2022/10/06 06:17:38;;;;;;;22.60;4.20;;;;;;;14.67;81.21;102502.03;6257709;22;20019;-61
2022/10/06 06:20:06;;;;;;;23.42;4.60;;;;;;;14.66;81.45;102500.41;6225255;22;20300;-61
2022/10/06 06:22:34;;;;;;;17.30;4.03;;;;;;;14.71;81.22;102513.38;6278416;22;20024;-61
2022/10/06 06:25:04;;;;;;;29.83;5.10;;;;;;;14.61;78.84;102519.84;6277625;22;20019;-60
2022/10/06 06:27:31;;;;;;;24.00;4.30;;;;;;;14.78;78.80;102516.59;6279140;22;20023;-61
2022/10/06 06:29:58;;;;;;;26.05;4.50;;;;;;;14.79;79.02;102521.84;6279472;22;20060;-61
2022/10/06 06:32:27;;;;;;;24.88;3.63;;;;;;;14.86;78.70;102525.09;6236916;22;20026;-61
2022/10/06 06:34:55;;;;;;;25.50;4.40;;;;;;;14.52;75.10;102518.88;6251535;22;20474;-61
2022/10/06 06:37:23;;;;;;;22.60;4.07;;;;;;;14.65;77.76;102527.31;6251144;22;20016;-61
2022/10/06 06:39:50;;;;;;;24.60;4.93;;;;;;;14.81;76.21;102533.47;6259595;22;20034;-61
2022/10/06 06:42:20;;;;;;;32.38;6.95;;;;;;;14.94;75.52;102529.97;6250520;22;20042;-61
2022/10/06 06:44:47;;;;;;;32.03;7.40;;;;;;;14.87;75.80;102523.16;6251181;22;20016;-61
2022/10/06 06:47:35;;;;;;;30.17;10.13;;;;;;;15.00;74.83;102534.31;6251676;22;20011;-61
2022/10/06 06:50:09;;;;;;;28.83;5.28;;;;;;;14.79;73.54;102537.66;6251335;22;20020;-62
2022/10/06 06:52:37;;;;;;;24.70;5.13;;;;;;;14.69;72.55;102546.97;6261082;22;20025;-61
2022/10/06 06:55:07;;;;;;;19.90;4.18;;;;;;;14.23;74.01;102554.09;6251040;22;20455;-61
2022/10/06 06:57:34;;;;;;;24.70;5.85;;;;;;;14.64;75.15;102552.56;6250944;22;20015;-61
2022/10/06 07:00:05;;;;;;;27.77;4.35;;;;;;;14.63;73.56;102551.75;6279077;22;20019;-61
2022/10/06 07:02:33;;;;;;;;;;;;;;;14.81;74.80;102558.44;6262015;22;20019;-60
2022/10/06 07:05:00;;;;;;;20.48;4.60;;;;;;;14.93;73.83;102563.56;6251274;22;19942;-60
2022/10/06 07:07:28;;;;;;;25.02;4.80;;;;;;;14.56;72.47;102561.53;6251226;22;20016;-61
2022/10/06 07:09:56;;;;;;;27.83;4.65;;;;;;;14.90;73.52;102565.00;6250539;22;20031;-60
2022/10/06 07:12:25;;;;;;;29.23;5.28;;;;;;;14.98;71.99;102571.81;6226216;22;20026;-60
2022/10/06 07:26:16;;;;;;;28.20;3.90;;;;;;;14.61;72.01;102586.41;6250002;22;20027;-60
2022/10/06 07:28:44;;;;;;;20.52;4.50;;;;;;;14.67;72.39;102593.56;6226419;22;20462;-62
2022/10/06 07:31:17;;;;;;;24.85;4.43;;;;;;;14.80;72.95;102597.59;6225111;22;20016;-61
2022/10/06 07:33:46;;;;;;;28.08;5.75;;;;;;;15.01;71.62;102596.22;6251464;22;20024;-62
2022/10/06 07:36:15;;;;;;;29.60;5.03;;;;;;;14.83;71.06;102603.38;6287830;22;20024;-61
2022/10/06 07:38:43;;;;;;;21.52;4.38;;;;;;;15.03;72.05;102596.75;6250417;22;20023;-62
2022/10/06 07:41:10;;;;;;;30.33;4.95;;;;;;;15.09;70.71;102601.94;6250586;22;20352;-61
2022/10/06 07:43:52;;;;;;;27.92;4.03;;;;;;;14.90;71.93;102603.84;6249934;22;20019;-61
2022/10/06 07:46:20;;;;;;;25.05;5.32;;;;;;;14.89;70.54;102607.72;6251057;22;20015;-60
2022/10/06 07:49:01;;;;;;;26.10;4.35;;;;;;;15.16;71.17;102607.09;6239189;22;20019;-61
2022/10/06 07:51:29;;;;;;;30.95;9.18;;;;;;;15.14;70.60;102604.63;6224065;22;20036;-61
2022/10/06 07:53:58;;;;;;;24.05;7.57;;;;;;;15.27;70.41;102614.19;6251506;22;20356;-60
2022/10/06 07:56:43;;;;;;;26.13;4.30;;;;;;;14.95;68.73;102623.19;6250265;22;20023;-61
2022/10/06 07:59:10;;;;;;;29.02;4.53;;;;;;;14.56;69.51;102615.06;6250866;22;20016;-61
2022/10/06 08:01:38;;;;;;;24.23;4.80;;;;;;;14.37;71.67;102625.25;6250148;22;20376;-61
2022/10/06 08:04:06;;;;;;;24.90;5.72;;;;;;;14.53;71.21;102623.97;6278276;22;20331;-61
2022/10/06 08:06:33;;;;;;;29.83;5.13;;;;;;;14.68;70.26;102623.78;6225010;22;20020;-61
2022/10/06 08:09:01;;;;;;;26.77;4.40;;;;;;;14.55;71.64;102620.91;6278413;22;20008;-62
2022/10/06 08:11:28;;;;;;;25.00;4.40;;;;;;;14.82;70.69;102635.00;6278046;22;20462;-60
2022/10/06 08:13:55;;;;;;;24.98;4.15;;;;;;;14.77;71.03;102635.06;6277563;22;20020;-61
2022/10/06 08:16:28;;;;;;;32.83;5.47;;;;;;;15.07;71.50;102631.09;6277766;22;20019;-61
2022/10/06 08:18:58;;;;;;;25.20;4.32;;;;;;;15.22;70.09;102628.94;6278388;22;20015;-62
2022/10/06 08:21:26;;;;;;;22.98;4.78;;;;;;;15.43;70.32;102632.31;6277458;22;20320;-60
2022/10/06 08:23:55;;;;;;;32.47;5.68;;;;;;;15.45;68.47;102632.81;6251324;22;20023;-62
2022/10/06 08:26:24;;;;;;;26.27;5.95;;;;;;;15.66;68.27;102637.78;6277660;22;20023;-61
2022/10/06 08:28:54;;;;;;;22.25;4.47;;;;;;;15.67;68.20;102636.63;6249983;22;20558;-61
2022/10/06 08:31:22;;;;;;;32.70;6.43;;;;;;;15.97;66.91;102640.09;6277717;22;20035;-61
2022/10/06 08:33:53;;;;;;;24.70;5.28;;;;;;;16.00;67.36;102636.69;6250980;22;20020;-61
2022/10/06 08:36:22;;;;;;;31.35;10.57;;;;;;;15.93;67.61;102641.81;6277446;22;20020;-60
2022/10/06 08:38:56;;;;;;;27.15;9.65;;;;;;;16.08;67.42;102641.56;6252644;22;20561;-61
2022/10/06 08:41:39;;;;;;;35.17;7.63;;;;;;;16.10;66.12;102647.63;6276880;22;20024;-60
2022/10/06 08:44:18;;;;;;;23.30;4.43;;;;;;;15.72;64.91;102650.47;6277548;22;20016;-60
2022/10/06 08:47:10;;;;;;;23.10;4.13;;;;;;;15.01;66.77;102654.50;6250552;22;20456;-60
2022/10/06 08:49:43;;;;;;;22.90;4.22;;;;;;;14.53;68.82;102659.19;6226654;22;20020;-64
2022/10/06 08:52:35;;;;;;;26.38;4.18;;;;;;;14.66;68.56;102664.84;6277800;22;20019;-62
2022/10/06 08:55:22;;;;;;;21.55;3.63;;;;;;;14.77;68.79;102654.47;6252044;22;20030;-62
2022/10/06 08:58:01;;;;;;;24.05;4.40;;;;;;;14.71;68.52;102661.22;6277651;22;20016;-61
2022/10/06 09:00:31;;;;;;;26.90;4.13;;;;;;;15.17;69.27;102665.09;6277269;22;20063;-61
2022/10/06 09:03:00;;;;;;;26.85;4.85;;;;;;;15.38;67.84;102662.88;6277626;22;20020;-60
2022/10/06 09:05:29;;;;;;;24.52;3.85;;;;;;;15.30;66.63;102661.59;6277855;22;20015;-62
2022/10/06 09:07:58;;;;;;;32.78;4.50;;;;;;;14.75;67.37;102669.78;6277911;22;20020;-61
2022/10/06 09:10:51;;;;;;;33.10;5.68;;;;;;;14.81;67.54;102674.97;6277763;22;20022;-62
2022/10/06 09:13:24;;;;;;;27.85;5.15;;;;;;;14.72;67.96;102678.66;6249547;22;20024;-61
2022/10/06 09:16:06;;;;;;;26.00;5.18;;;;;;;15.17;69.10;102667.88;6278206;22;20024;-61
2022/10/06 09:18:36;;;;;;;21.42;3.65;;;;;;;15.49;66.28;102672.75;6253310;22;20019;-61
2022/10/06 09:21:34;;;;;;;34.25;8.30;;;;;;;15.26;66.27;102668.88;6279384;22;20019;-61
2022/10/06 09:24:09;;;;;;;25.30;4.82;;;;;;;15.66;66.54;102673.06;6279796;22;20015;-61
2022/10/06 09:26:42;;;;;;;26.60;4.55;;;;;;;15.54;65.49;102672.69;6279233;22;20026;-61
2022/10/06 09:29:09;;;;;;;37.15;5.40;;;;;;;15.28;67.05;102671.34;6253545;22;20109;-61
2022/10/06 09:31:39;;;;;;;18.90;3.58;;;;;;;15.30;67.14;102664.38;6279811;22;20022;-61
2022/10/06 09:34:36;;;;;;;25.42;4.53;;;;;;;15.66;66.23;102667.50;6280096;22;20012;-61
2022/10/06 09:37:07;;;;;;;23.63;4.45;;;;;;;15.73;66.01;102679.06;6279395;22;20068;-61
2022/10/06 09:39:40;;;;;;;27.65;4.70;;;;;;;15.90;65.19;102671.03;6278969;22;20026;-61
2022/10/06 09:42:20;;;;;;;24.70;4.43;;;;;;;16.24;65.95;102671.59;6226442;22;20313;-60
2022/10/06 09:44:58;;;;;;;24.88;4.07;;;;;;;16.43;64.64;102664.03;6279582;22;20020;-61
2022/10/06 09:47:27;;;;;;;32.42;4.43;;;;;;;16.19;64.46;102668.91;6278820;22;20041;-60
2022/10/06 09:50:11;;;;;;;22.67;4.63;;;;;;;16.46;64.14;102662.56;6279468;22;20020;-61
2022/10/06 09:53:02;;;;;;;20.23;4.35;;;;;;;16.13;63.33;102666.47;6279636;22;20015;-61
2022/10/06 09:55:35;;;;;;;23.60;3.85;;;;;;;16.26;63.99;102668.50;6278121;22;20023;-61
2022/10/06 09:58:19;;;;;;;20.13;3.60;;;;;;;16.30;63.42;102672.34;6251069;22;20019;-60
2022/10/06 10:00:55;;;;;;;33.92;4.45;;;;;;;16.37;62.56;102672.75;6251264;22;20019;-61
2022/10/06 10:03:30;;;;;;;34.42;3.92;;;;;;;15.70;64.73;102672.19;6252729;22;20034;-60
2022/10/06 10:06:01;;;;;;;21.77;4.45;;;;;;;16.15;64.85;102673.41;6252152;22;20034;-60
2022/10/06 10:08:31;;;;;;;24.23;4.78;;;;;;;16.35;63.83;102670.25;6253337;22;20195;-61
2022/10/06 10:12:23;;;;;;;24.83;4.05;;;;;;;16.61;63.47;102662.34;6252032;22;20023;-61
2022/10/06 10:13:58;;;;;;;23.40;5.70;;;;;;;16.64;62.24;102665.31;6279624;22;20020;-60
2022/10/06 10:16:27;;;;;;;23.38;5.57;;;;;;;16.60;62.62;102669.00;6251332;22;20015;-61
2022/10/06 10:18:54;;;;;;;25.13;3.83;;;;;;;16.91;61.96;102661.75;6251815;22;20020;-66
2022/10/06 10:21:24;;;;;;;22.42;5.03;;;;;;;16.96;61.31;102650.50;6250528;22;20516;-62
2022/10/06 10:23:56;;;;;;;21.13;4.75;;;;;;;16.79;61.23;102659.47;6279092;22;20018;-61
2022/10/06 10:26:29;;;;;;;22.85;5.20;;;;;;;16.93;62.44;102661.44;6225773;22;20320;-61
2022/10/06 10:29:05;;;;;;;24.02;4.60;;;;;;;17.24;61.87;102662.44;6278830;22;20022;-61
2022/10/06 10:31:42;;;;;;;22.58;4.43;;;;;;;17.22;61.51;102654.41;6227135;22;20020;-61
2022/10/06 10:34:28;;;;;;;21.15;4.20;;;;;;;17.32;61.47;102651.41;6250544;22;20019;-62
2022/10/06 10:37:11;;;;;;;26.70;4.57;;;;;;;17.51;60.74;102656.84;6278215;22;20506;-61
2022/10/06 10:39:38;;;;;;;17.73;3.72;;;;;;;17.57;59.20;102648.06;6250714;22;20016;-61
2022/10/06 10:42:36;;;;;;;27.02;8.13;;;;;;;17.69;59.27;102650.31;6278305;22;20432;-60
2022/10/06 10:45:10;;;;;;;22.70;5.07;;;;;;;17.38;57.96;102652.13;6263152;22;20024;-60
2022/10/06 10:47:38;;;;;;;21.27;4.82;;;;;;;16.85;59.26;102649.88;6251503;22;20019;-60
2022/10/06 10:50:26;;;;;;;16.20;2.78;;;;;;;16.68;59.26;102644.09;6251708;22;20012;-63
2022/10/06 10:53:06;;;;;;;27.63;4.50;;;;;;;16.73;59.60;102644.00;6252231;22;20026;-62
2022/10/06 10:55:35;;;;;;;;;;;;;;;16.69;58.43;102636.56;6279204;22;20026;-61
2022/10/06 10:58:16;;;;;;;24.95;3.85;;;;;;;16.96;58.34;102644.94;6251922;22;19966;-62
2022/10/06 11:00:45;;;;;;;21.65;4.80;;;;;;;16.85;59.02;102649.06;6251364;22;20022;-61
2022/10/06 11:03:13;;;;;;;55.38;15.85;;;;;;;16.89;58.73;102644.53;6251705;22;20022;-60
2022/10/06 11:06:15;;;;;;;29.30;7.85;;;;;;;17.15;59.22;102642.88;6226163;22;20047;-61
2022/10/06 11:09:07;;;;;;;23.60;6.20;;;;;;;17.61;57.19;102643.50;6251731;22;20026;-61
2022/10/06 11:11:44;;;;;;;25.55;4.45;;;;;;;17.37;55.40;102633.75;6278230;22;20019;-60
2022/10/06 11:14:40;;;;;;;22.08;4.07;;;;;;;17.29;53.86;102637.28;6278858;22;20482;-60
2022/10/06 11:17:14;;;;;;;16.33;3.10;;;;;;;16.92;55.04;102641.13;6278490;22;20022;-60
2022/10/06 11:20:00;;;;;;;21.02;3.90;;;;;;;17.12;54.49;102629.53;6278298;22;20447;-61
2022/10/06 11:22:44;;;;;;;17.80;3.60;;;;;;;17.11;56.02;102636.25;6278130;22;20027;-61
2022/10/06 11:25:21;;;;;;;23.30;4.15;;;;;;;17.64;55.80;102642.88;6250824;22;20018;-61
2022/10/06 11:27:57;;;;;;;20.05;4.25;;;;;;;17.30;55.57;102636.97;6278159;22;20071;-61
2022/10/06 11:30:25;;;;;;;13.73;3.75;;;;;;;17.99;54.56;102633.66;6277850;22;20011;-61
2022/10/06 11:33:12;;;;;;;21.58;4.57;;;;;;;18.07;53.60;102634.03;6251340;22;20015;-61
2022/10/06 11:35:44;;;;;;;20.60;3.47;;;;;;;17.68;53.52;102637.50;6278147;22;20372;-60
2022/10/06 11:38:17;;;;;;;24.23;5.03;;;;;;;18.18;51.75;102622.31;6251116;22;20042;-62
2022/10/06 11:40:53;;;;;;;19.38;3.42;;;;;;;18.33;50.23;102621.91;6278033;22;20490;-61
2022/10/06 11:43:39;;;;;;;16.08;3.55;;;;;;;18.41;50.33;102620.34;6288198;22;20024;-61
2022/10/06 11:46:25;;;;;;;15.02;3.95;;;;;;;18.67;50.55;102619.31;6251267;22;20019;-62
2022/10/06 11:49:30;;;;;;;18.17;3.50;;;;;;;18.90;47.71;102608.88;6278031;22;20074;-62
2022/10/06 11:52:10;;;;;;;15.63;3.63;;;;;;;19.07;49.02;102612.56;6277505;22;20451;-62
2022/10/06 11:54:44;;;;;;;17.55;4.05;;;;;;;18.92;48.17;102609.38;6278298;22;20019;-60